Flight Track Log - Related Links

Times and Time Zones

All times are in EDT time to prevent confusion due to time zone crossing. See the JZA8193 flight status page for this flight to view local times or setup timezone preferences in your user account.


Time Position Orientation Groundspeed Altitude Reporting Facility
EDT Latitude Longitude Course Direction KTS MPH feet Rate Location/Type
Tue 02:49:38 PM 50.7000 -120.5000 210° Southwest 120 138 3,400  Level Vancouver Center
Tue 02:50:38 PM 50.7167 -120.5500 298° West 140 161 4,800 1,450 Climbing Vancouver Center
Tue 02:51:38 PM 50.6833 -120.6167 232° Southwest 160 184 6,300 1,550 Climbing Vancouver Center
Tue 02:52:00 PM 50.5011 -120.4823 212° Southwest  Level FlightAware Approximate
Tue 02:52:38 PM 50.6500 -120.6667 224° Southwest 160 184 7,900  Level Vancouver Center
Tue 02:53:00 PM 50.4449 -120.5333 180° South  Level FlightAware Approximate
Tue 02:53:38 PM 50.6000 -120.7000 203° Southwest 160 184 9,200  Level Vancouver Center
Tue 02:54:00 PM 50.3868 -120.5766 210° Southwest  Level FlightAware Approximate
Tue 02:54:38 PM 50.5667 -120.7500 224° Southwest 170 196 10,500  Level Vancouver Center
Tue 02:55:00 PM 50.3298 -120.6273 210° Southwest  Level FlightAware Approximate
Tue 02:55:38 PM 50.5333 -120.8000 224° Southwest 170 196 11,800  Level Vancouver Center
Tue 02:56:38 PM 50.5000 -120.8333 212° Southwest 170 196 13,100 1,250 Climbing Vancouver Center
Tue 02:57:38 PM 50.4500 -120.8833 212° Southwest 170 196 14,300 1,000 Climbing Vancouver Center
Tue 02:58:38 PM 50.4167 -120.9500 232° Southwest 180 207 15,100 850 Climbing Vancouver Center
Tue 02:59:38 PM 50.3667 -121.0000 213° Southwest 190 219 16,000 450 Climbing Vancouver Center
Tue 03:00:38 PM 50.3333 -121.0500 224° Southwest 200 230 16,000  Level Vancouver Center
Tue 03:01:38 PM 50.2833 -121.1000 213° Southwest 220 253 16,000  Level Vancouver Center
Tue 03:02:38 PM 50.2333 -121.1667 220° Southwest 230 265 16,000  Level Vancouver Center
Tue 03:03:38 PM 50.1833 -121.2500 227° Southwest 240 276 16,000  Level Vancouver Center
Tue 03:04:38 PM 50.1333 -121.3000 213° Southwest 240 276 16,000  Level Vancouver Center
Tue 03:05:38 PM 50.0667 -121.3500 206° Southwest 240 276 16,000  Level Vancouver Center
Tue 03:06:38 PM 50.0167 -121.4167 221° Southwest 240 276 16,000  Level Vancouver Center
Tue 03:07:38 PM 49.9667 -121.4833 221° Southwest 240 276 16,000  Level Vancouver Center
Tue 03:08:38 PM 49.9167 -121.5500 221° Southwest 240 276 16,000  Level Vancouver Center
Tue 03:09:38 PM 49.8667 -121.6000 213° Southwest 240 276 16,000  Level Vancouver Center
Tue 03:10:38 PM 49.8167 -121.6833 227° Southwest 240 276 16,000 -50 Level Vancouver Center
Tue 03:11:38 PM 49.7667 -121.7333 213° Southwest 230 265 15,900  Descending Vancouver Center
Tue 03:12:38 PM 49.7000 -121.8167 219° Southwest 240 276 16,000 -250 Climbing Vancouver Center
Tue 03:13:38 PM 49.6500 -121.8667 213° Southwest 240 276 15,400 -700 Descending Vancouver Center
Tue 03:14:38 PM 49.6000 -121.9167 213° Southwest 230 265 14,600 -900 Descending Vancouver Center
Tue 03:15:38 PM 49.5500 -121.9500 203° Southwest 220 253 13,600 -1,050 Descending Vancouver Center
Tue 03:16:38 PM 49.4833 -121.9667 189° South 230 265 12,500 -1,000 Descending Vancouver Center
Tue 03:17:38 PM 49.4167 -122.0333 213° Southwest 230 265 11,600 -950 Descending Vancouver Center
Tue 03:18:38 PM 49.4167 -122.1000 270° West 240 276 10,600 -850 Descending Vancouver Center
Tue 03:19:38 PM 49.4000 -122.2333 259° West 260 299 9,900 -750 Descending Vancouver Center
Tue 03:20:38 PM 49.3833 -122.3333 256° West 270 311 9,100 -450 Descending Vancouver Center
Tue 03:21:38 PM 49.3833 -122.4333 270° West 270 311 9,000 -400 Descending Vancouver Center
Tue 03:22:38 PM 49.3667 -122.5667 259° West 250 288 8,300 -850 Descending Vancouver Center
Tue 03:23:38 PM 49.3500 -122.6500 253° West 240 276 7,300 -650 Descending Vancouver Center
Tue 03:24:38 PM 49.2833 -122.6667 189° South 230 265 7,000 -600 Descending Vancouver Center
Tue 03:25:38 PM 49.2333 -122.7333 221° Southwest 230 265 6,100 -1,100 Descending Vancouver Center
Tue 03:26:38 PM 49.1833 -122.7833 213° Southwest 240 276 4,800 -1,350 Descending Vancouver Center
Tue 03:27:38 PM 49.1500 -122.8833 243° Southwest 230 265 3,400 -1,150 Descending Vancouver Center
Tue 03:28:38 PM 49.1667 -122.9500 291° West 220 253 2,500 -950 Descending Vancouver Center
Tue 03:29:38 PM 49.1667 -123.0333 270° West 180 207 1,500 -1,000 Descending Vancouver Center

Login

Don't have an account? Register now (free) for customized features, flight alerts, and more!